createdAt,value
2023-04-28T00:02:21.190Z,-0.98
2023-04-28T00:04:49.387Z,-1.01
2023-04-28T00:07:19.181Z,-1.12
2023-04-28T00:09:46.063Z,-1.19
2023-04-28T00:12:12.737Z,-1.09
2023-04-28T00:14:40.829Z,-1.10
2023-04-28T00:17:09.417Z,-1.06
2023-04-28T00:19:36.853Z,-1.02
2023-04-28T00:22:04.833Z,-1.00
2023-04-28T00:24:33.702Z,-1.03
2023-04-28T00:27:01.367Z,-0.93
2023-04-28T00:29:29.990Z,-0.88
2023-04-28T00:31:56.967Z,-0.94
2023-04-28T00:34:24.085Z,-1.00
2023-04-28T00:36:52.070Z,-1.07
2023-04-28T00:39:18.976Z,-1.11
2023-04-28T00:41:46.054Z,-1.07
2023-04-28T00:44:14.278Z,-1.07
2023-04-28T00:46:44.252Z,-1.15
2023-04-28T00:49:11.671Z,-1.10
2023-04-28T00:51:38.460Z,-1.21
2023-04-28T00:54:07.559Z,-1.28
2023-04-28T00:56:35.559Z,-1.32
2023-04-28T00:59:02.641Z,-1.37
2023-04-28T01:01:32.230Z,-1.29
2023-04-28T01:04:05.497Z,-1.32
2023-04-28T01:06:33.925Z,-1.34
2023-04-28T01:09:00.583Z,-1.44
2023-04-28T01:11:29.694Z,-1.55
2023-04-28T01:13:57.415Z,-1.58
2023-04-28T01:16:26.117Z,-1.58
2023-04-28T01:18:56.152Z,-1.58
2023-04-28T01:21:32.653Z,-1.49
2023-04-28T01:24:00.887Z,-1.47
2023-04-28T01:26:27.855Z,-1.42
2023-04-28T01:28:54.681Z,-1.40
2023-04-28T01:31:21.573Z,-1.39
2023-04-28T01:33:48.347Z,-1.53
2023-04-28T01:36:15.046Z,-1.56
2023-04-28T01:38:41.825Z,-1.49
2023-04-28T01:41:08.519Z,-1.43
2023-04-28T01:43:35.160Z,-1.40
2023-04-28T01:46:01.916Z,-1.42
2023-04-28T01:48:28.717Z,-1.43
2023-04-28T01:50:55.390Z,-1.42
2023-04-28T01:53:22.248Z,-1.37
2023-04-28T01:55:48.960Z,-1.40
2023-04-28T01:58:15.915Z,-1.40
2023-04-28T02:00:42.588Z,-1.35
2023-04-28T02:03:09.523Z,-1.32
2023-04-28T02:05:37.578Z,-1.30
2023-04-28T02:08:04.926Z,-1.36
2023-04-28T02:10:31.596Z,-1.37
2023-04-28T02:12:58.385Z,-1.20
2023-04-28T02:15:25.012Z,-1.08
2023-04-28T02:17:51.982Z,-1.09
2023-04-28T02:20:18.715Z,-1.09
2023-04-28T02:22:45.441Z,-1.06
2023-04-28T02:25:14.146Z,-1.10
2023-04-28T02:27:43.727Z,-1.12
2023-04-28T02:30:11.032Z,-1.19
2023-04-28T02:32:37.656Z,-1.23
2023-04-28T02:35:04.995Z,-1.22
2023-04-28T02:37:31.626Z,-1.17
2023-04-28T02:39:58.302Z,-1.17
2023-04-28T02:42:25.025Z,-1.19
2023-04-28T02:44:52.501Z,-1.18
2023-04-28T02:47:19.218Z,-1.24
2023-04-28T02:49:45.977Z,-1.22
2023-04-28T02:52:12.782Z,-1.17
2023-04-28T02:54:46.891Z,-1.19
2023-04-28T02:57:13.534Z,-1.14
2023-04-28T02:59:42.686Z,-1.13
2023-04-28T03:02:12.811Z,-1.15
2023-04-28T03:04:42.470Z,-1.10
2023-04-28T03:07:12.117Z,-1.12
2023-04-28T03:09:40.099Z,-1.06
2023-04-28T03:12:08.532Z,-1.08
2023-04-28T03:14:35.350Z,-1.12
2023-04-28T03:17:02.037Z,-1.17
2023-04-28T03:19:28.930Z,-1.21
2023-04-28T03:21:55.956Z,-1.20
2023-04-28T03:24:22.618Z,-1.24
2023-04-28T03:26:49.558Z,-1.22
2023-04-28T03:29:18.775Z,-1.12
2023-04-28T03:31:45.566Z,-1.10
2023-04-28T03:34:12.407Z,-0.98
2023-04-28T03:36:39.146Z,-0.89
2023-04-28T03:39:06.163Z,-0.81
2023-04-28T03:41:33.031Z,-0.71
2023-04-28T03:43:59.722Z,-0.65
2023-04-28T03:46:26.549Z,-0.59
2023-04-28T03:48:53.927Z,-0.53
2023-04-28T03:51:20.763Z,-0.46
2023-04-28T03:53:47.596Z,-0.42
2023-04-28T03:56:14.287Z,-0.35
2023-04-28T03:58:43.774Z,-0.28
2023-04-28T04:01:10.723Z,-0.22
2023-04-28T04:03:37.946Z,-0.18
2023-04-28T04:06:05.811Z,-0.21
2023-04-28T04:08:33.297Z,-0.03
2023-04-28T04:10:59.946Z,0.03
2023-04-28T04:13:26.708Z,0.05
2023-04-28T04:15:58.860Z,0.06
2023-04-28T04:18:31.753Z,0.09
2023-04-28T04:21:02.298Z,0.09
2023-04-28T04:23:29.043Z,0.09
2023-04-28T04:25:58.377Z,0.16
2023-04-28T04:28:25.224Z,0.38
2023-04-28T04:30:52.001Z,0.45
2023-04-28T04:33:22.441Z,0.46
2023-04-28T04:35:52.032Z,0.49
2023-04-28T04:38:18.725Z,0.52
2023-04-28T04:40:45.429Z,0.66
2023-04-28T04:43:12.077Z,0.86
2023-04-28T04:45:46.996Z,1.02
2023-04-28T04:48:14.329Z,1.35
2023-04-28T04:50:45.627Z,1.68
2023-04-28T04:53:16.092Z,1.82
2023-04-28T04:55:54.848Z,2.07
2023-04-28T04:58:24.887Z,2.17
2023-04-28T05:00:51.839Z,2.33
2023-04-28T05:22:25.611Z,4.16
2023-04-28T06:24:47.747Z,8.88
2023-04-28T06:27:14.789Z,9.53
2023-04-28T06:29:48.328Z,9.61
2023-04-28T06:32:15.171Z,9.94
2023-04-28T06:34:42.651Z,10.15
2023-04-28T06:37:12.496Z,9.63
2023-04-28T06:39:46.646Z,9.51
2023-04-28T06:42:21.557Z,9.31
2023-04-28T06:44:48.378Z,9.14
2023-04-28T06:47:15.395Z,8.60
2023-04-28T06:49:43.955Z,8.59
2023-04-28T06:52:10.912Z,8.73
2023-04-28T06:54:38.512Z,8.74
2023-04-28T06:57:07.721Z,8.56
2023-04-28T06:59:38.232Z,8.34
2023-04-28T07:02:07.708Z,8.59
2023-04-28T07:04:34.547Z,8.68
2023-04-28T07:07:03.752Z,8.82
2023-04-28T07:09:31.550Z,8.83
2023-04-28T07:11:58.456Z,8.63
2023-04-28T07:14:25.891Z,9.25
2023-04-28T07:16:55.066Z,9.75
2023-04-28T07:19:22.216Z,9.75
2023-04-28T07:21:48.919Z,10.16
2023-04-28T07:24:16.157Z,10.59
2023-04-28T07:26:49.377Z,11.18
2023-04-28T07:29:19.501Z,11.87
2023-04-28T07:31:56.341Z,11.75
2023-04-28T07:34:23.086Z,12.01
2023-04-28T07:36:49.962Z,12.46
2023-04-28T07:39:16.682Z,12.04
2023-04-28T07:41:43.490Z,12.11
2023-04-28T07:44:10.365Z,11.28
2023-04-28T07:46:38.203Z,11.12
2023-04-28T07:49:10.750Z,11.34
2023-04-28T07:51:42.525Z,11.86
2023-04-28T07:54:12.369Z,12.20
2023-04-28T07:56:40.419Z,12.64
2023-04-28T07:59:07.047Z,12.59
2023-04-28T08:01:36.199Z,12.40
2023-04-28T08:04:06.603Z,12.53
2023-04-28T08:06:33.930Z,11.86
2023-04-28T08:09:02.339Z,12.05
2023-04-28T08:11:29.106Z,12.45
2023-04-28T08:14:01.123Z,12.82
2023-04-28T08:16:31.376Z,12.58
2023-04-28T08:18:59.739Z,12.48
2023-04-28T08:21:27.025Z,13.15
2023-04-28T08:23:59.790Z,12.73
2023-04-28T08:26:26.545Z,12.66
2023-04-28T08:28:59.384Z,12.94
2023-04-28T08:31:26.350Z,13.28
2023-04-28T08:33:55.771Z,13.60
2023-04-28T08:36:25.029Z,14.36
2023-04-28T08:39:01.512Z,14.80
2023-04-28T08:41:33.219Z,15.02
2023-04-28T08:43:59.918Z,15.04
2023-04-28T08:46:29.100Z,15.08
2023-04-28T08:49:02.215Z,13.58
2023-04-28T08:51:50.687Z,13.18
2023-04-28T08:54:29.767Z,13.37
2023-04-28T08:56:58.837Z,13.30
2023-04-28T08:59:26.323Z,14.05
2023-04-28T09:01:53.083Z,13.80
2023-04-28T09:04:23.539Z,13.90
2023-04-28T09:06:50.661Z,14.29
2023-04-28T09:09:32.580Z,14.48
2023-04-28T09:12:04.756Z,14.43
2023-04-28T09:14:37.928Z,14.06
2023-04-28T09:17:14.356Z,14.40
2023-04-28T09:19:44.253Z,14.23
2023-04-28T09:22:26.399Z,14.07
2023-04-28T09:24:56.930Z,13.91
2023-04-28T09:27:28.892Z,14.03
2023-04-28T09:29:56.177Z,14.18
2023-04-28T09:32:24.785Z,14.31
2023-04-28T09:34:57.120Z,14.42
2023-04-28T09:37:27.390Z,14.78
2023-04-28T09:40:17.168Z,14.38
2023-04-28T09:42:46.531Z,14.65
2023-04-28T09:45:16.188Z,13.72
2023-04-28T09:47:47.265Z,14.01
2023-04-28T09:50:18.495Z,14.36
2023-04-28T09:52:57.872Z,14.65
2023-04-28T09:55:28.609Z,14.47
2023-04-28T09:57:56.818Z,14.74
2023-04-28T10:00:24.870Z,14.90
2023-04-28T10:02:53.313Z,14.41
2023-04-28T10:05:24.648Z,13.85
2023-04-28T10:07:56.198Z,13.97
2023-04-28T10:10:27.394Z,14.91
2023-04-28T10:12:57.611Z,15.40
2023-04-28T10:15:24.297Z,14.64
2023-04-28T10:17:51.842Z,14.03
2023-04-28T10:20:21.159Z,14.81
2023-04-28T10:23:47.102Z,15.53
2023-04-28T10:26:21.969Z,15.75
2023-04-28T10:28:52.236Z,15.34
2023-04-28T10:31:21.703Z,15.47
2023-04-28T10:33:49.911Z,15.04
2023-04-28T10:36:54.852Z,16.08
2023-04-28T10:39:24.020Z,15.58
2023-04-28T10:41:50.790Z,14.30
2023-04-28T10:44:35.653Z,14.51
2023-04-28T10:47:12.016Z,14.93
2023-04-28T10:50:11.706Z,15.65
2023-04-28T10:52:44.035Z,15.27
2023-04-28T10:55:44.717Z,14.72
2023-04-28T10:58:17.871Z,14.28
2023-04-28T11:00:45.649Z,15.13
2023-04-28T11:03:47.235Z,15.68
2023-04-28T11:06:41.638Z,15.38
2023-04-28T11:09:20.113Z,14.15
2023-04-28T11:12:08.010Z,14.07
2023-04-28T11:14:46.502Z,14.63
2023-04-28T11:17:15.003Z,14.71
2023-04-28T11:19:48.627Z,14.92
2023-04-28T11:22:23.820Z,14.99
2023-04-28T11:25:07.497Z,14.36
2023-04-28T11:27:34.605Z,15.31
2023-04-28T11:30:03.876Z,15.34
2023-04-28T11:32:47.846Z,15.30
2023-04-28T11:35:14.935Z,15.20
2023-04-28T11:37:44.850Z,15.01
2023-04-28T11:40:16.374Z,14.97
2023-04-28T11:42:55.549Z,15.86
2023-04-28T11:45:26.092Z,15.78
2023-04-28T11:47:55.193Z,16.09
2023-04-28T11:50:46.881Z,15.54
2023-04-28T11:53:13.777Z,15.97
2023-04-28T11:55:46.458Z,15.65
2023-04-28T11:58:27.927Z,15.72
2023-04-28T12:01:20.875Z,16.13
2023-04-28T12:03:51.579Z,15.60
2023-04-28T12:06:19.009Z,16.46
2023-04-28T12:08:45.744Z,16.00
2023-04-28T12:11:19.612Z,15.09
2023-04-28T12:14:07.653Z,15.80
2023-04-28T12:16:44.273Z,15.67
2023-04-28T12:19:15.306Z,15.72
2023-04-28T12:22:07.893Z,15.33
2023-04-28T12:24:35.990Z,15.80
2023-04-28T12:27:21.757Z,16.26
2023-04-28T12:29:48.842Z,15.96
2023-04-28T12:32:16.132Z,16.47
2023-04-28T12:34:46.947Z,16.61
2023-04-28T12:37:16.973Z,16.33
2023-04-28T12:39:46.606Z,17.06
2023-04-28T12:42:16.200Z,17.82
2023-04-28T12:44:42.828Z,17.53
2023-04-28T12:47:11.157Z,17.12
2023-04-28T12:49:43.853Z,16.65
2023-04-28T12:52:12.712Z,17.07
2023-04-28T12:54:42.542Z,17.02
2023-04-28T12:57:09.271Z,16.66
2023-04-28T12:59:36.141Z,17.39
2023-04-28T13:02:09.118Z,17.88
2023-04-28T13:04:36.463Z,16.68
2023-04-28T13:07:06.518Z,16.10
2023-04-28T13:09:33.872Z,16.52
2023-04-28T13:12:00.752Z,17.41
2023-04-28T13:14:28.616Z,17.17
2023-04-28T13:17:03.171Z,16.79
2023-04-28T13:19:33.675Z,16.32
2023-04-28T13:22:01.579Z,15.72
2023-04-28T13:24:28.292Z,15.67
2023-04-28T13:26:55.265Z,15.29
2023-04-28T13:29:27.555Z,15.58
2023-04-28T13:31:57.582Z,16.15
2023-04-28T13:34:24.331Z,15.46
2023-04-28T13:36:56.429Z,15.61
2023-04-28T13:39:26.365Z,15.79
2023-04-28T13:42:00.377Z,15.13
2023-04-28T13:44:27.004Z,15.12
2023-04-28T13:46:56.642Z,15.12
2023-04-28T13:49:26.257Z,14.64
2023-04-28T13:51:53.085Z,14.46
2023-04-28T13:54:20.152Z,14.83
2023-04-28T13:56:46.832Z,14.72
2023-04-28T13:59:19.587Z,14.63
2023-04-28T14:01:46.305Z,14.30
2023-04-28T14:04:23.141Z,13.69
2023-04-28T14:06:55.358Z,14.06
2023-04-28T14:09:22.096Z,14.02
2023-04-28T14:11:48.837Z,13.90
2023-04-28T14:14:20.082Z,13.72
2023-04-28T14:16:48.738Z,13.82
2023-04-28T14:19:18.569Z,13.81
2023-04-28T14:21:47.602Z,13.63
2023-04-28T14:24:17.344Z,13.54
2023-04-28T14:26:44.290Z,12.77
2023-04-28T14:29:15.191Z,12.94
2023-04-28T14:31:42.265Z,12.99
2023-04-28T14:34:16.585Z,12.93
2023-04-28T14:36:43.183Z,13.01
2023-04-28T14:39:12.348Z,12.78
2023-04-28T14:41:39.060Z,12.99
2023-04-28T14:44:06.161Z,12.52
2023-04-28T14:46:33.132Z,12.76
2023-04-28T14:49:00.064Z,12.63
2023-04-28T14:51:26.876Z,12.47
2023-04-28T14:53:56.799Z,12.42
2023-04-28T14:56:23.683Z,12.31
2023-04-28T14:58:50.395Z,12.49
2023-04-28T15:01:20.495Z,12.45
2023-04-28T15:03:47.437Z,12.34
2023-04-28T15:06:14.251Z,12.25
2023-04-28T15:08:44.086Z,12.63
2023-04-28T15:11:13.137Z,12.40
2023-04-28T15:13:43.098Z,12.31
2023-04-28T15:16:19.157Z,12.01
2023-04-28T15:18:46.229Z,12.04
2023-04-28T15:21:21.376Z,11.80
2023-04-28T15:23:49.393Z,11.71
2023-04-28T15:26:18.410Z,11.95
2023-04-28T15:28:45.204Z,11.78
2023-04-28T15:31:12.915Z,12.04
2023-04-28T15:33:42.782Z,11.66
2023-04-28T15:36:10.233Z,11.66
2023-04-28T15:38:38.395Z,11.48
2023-04-28T15:41:06.249Z,11.53
2023-04-28T15:43:32.924Z,11.42
2023-04-28T15:46:01.904Z,11.44
2023-04-28T17:34:49.871Z,9.29
2023-04-28T17:37:22.730Z,9.17
2023-04-28T18:26:48.339Z,8.34
2023-04-28T18:29:15.511Z,8.30
2023-04-28T20:13:34.839Z,7.14
2023-04-28T20:16:02.356Z,7.15
2023-04-28T20:18:31.672Z,7.11
2023-04-28T20:20:58.421Z,7.07
2023-04-28T20:23:29.475Z,7.06
2023-04-28T20:25:56.315Z,7.09
2023-04-28T20:28:28.328Z,7.02
2023-04-28T20:30:58.193Z,6.98
2023-04-28T20:33:32.265Z,6.98
2023-04-28T20:36:01.706Z,6.98
2023-04-28T20:38:29.892Z,6.96
2023-04-28T20:40:59.932Z,6.97
2023-04-28T20:43:32.542Z,6.93
2023-04-28T20:45:59.411Z,6.89
2023-04-28T20:48:30.022Z,6.85
2023-04-28T20:50:58.201Z,6.87
2023-04-28T20:53:27.806Z,6.92
2023-04-28T20:55:57.816Z,6.85
2023-04-28T20:58:27.349Z,6.87
2023-04-28T21:01:07.568Z,6.89
2023-04-28T21:03:34.515Z,6.88
2023-04-28T21:06:01.516Z,6.85
2023-04-28T21:08:31.449Z,6.83
2023-04-28T21:10:58.400Z,6.77
2023-04-28T21:13:25.138Z,6.69
2023-04-28T21:15:52.214Z,6.67
2023-04-28T21:18:19.155Z,6.63
2023-04-28T21:20:46.165Z,6.61
2023-04-28T21:23:20.570Z,6.60
2023-04-28T21:25:55.372Z,6.55
2023-04-28T21:28:25.083Z,6.51
2023-04-28T21:30:55.375Z,6.60
2023-04-28T21:33:22.293Z,6.60
2023-04-28T21:35:49.157Z,6.59
2023-04-28T21:38:19.170Z,6.54
2023-04-28T21:40:46.022Z,6.54
2023-04-28T21:43:12.820Z,6.53
2023-04-28T21:45:42.016Z,6.52
2023-04-28T21:48:09.722Z,6.51
2023-04-28T21:50:41.212Z,6.52
2023-04-28T21:53:10.669Z,6.42
2023-04-28T21:55:37.609Z,6.42
2023-04-28T21:58:07.751Z,6.46
2023-04-28T22:00:46.493Z,6.39
2023-04-28T22:03:16.818Z,6.33
2023-04-28T22:05:47.072Z,6.35
2023-04-28T22:08:14.524Z,6.33
2023-04-28T22:10:49.863Z,6.27
2023-04-28T22:13:22.634Z,6.29
2023-04-28T22:15:49.739Z,6.25
2023-04-28T22:18:18.782Z,6.27
2023-04-28T22:20:45.584Z,6.28
2023-04-28T22:23:12.377Z,6.27
2023-04-28T22:25:43.456Z,6.25
2023-04-28T22:28:10.259Z,6.27
2023-04-28T22:30:43.193Z,6.21
2023-04-28T22:33:10.287Z,6.18
2023-04-28T22:35:37.767Z,6.18
2023-04-28T22:38:04.510Z,6.13
2023-04-28T22:40:34.365Z,6.15
2023-04-28T22:43:01.303Z,6.16
2023-04-28T22:45:36.284Z,6.12
2023-04-28T22:48:06.259Z,6.09
2023-04-28T22:50:35.968Z,6.13
2023-04-28T22:53:05.815Z,6.14
2023-04-28T22:55:38.402Z,6.10
2023-04-28T22:58:08.154Z,6.11
2023-04-28T23:00:35.932Z,6.15
2023-04-28T23:03:04.463Z,6.11
2023-04-28T23:05:38.682Z,6.10
2023-04-28T23:08:05.888Z,6.14
2023-04-28T23:10:35.493Z,6.14
2023-04-28T23:13:02.209Z,6.17
2023-04-28T23:15:38.141Z,6.10
2023-04-28T23:18:05.034Z,6.14
2023-04-28T23:20:35.047Z,6.11
2023-04-28T23:23:01.781Z,6.10
2023-04-28T23:25:37.386Z,6.11
2023-04-28T23:28:04.375Z,6.13
2023-04-28T23:30:34.211Z,6.12
2023-04-28T23:33:01.201Z,6.11
2023-04-28T23:35:28.042Z,6.16
2023-04-28T23:37:54.833Z,6.12
2023-04-28T23:40:21.631Z,6.16
2023-04-28T23:42:48.498Z,6.14
2023-04-28T23:45:15.807Z,6.12
2023-04-28T23:47:42.995Z,6.13
2023-04-28T23:50:10.686Z,6.15
2023-04-28T23:52:38.639Z,6.20
2023-04-28T23:55:08.552Z,6.19
2023-04-28T23:57:39.156Z,6.23
